createdAt,value
2022-10-24T00:00:46.201Z,3.84
2022-10-24T00:02:48.917Z,3.78
2022-10-24T00:04:51.937Z,3.78
2022-10-24T00:06:54.538Z,3.74
2022-10-24T00:08:57.107Z,3.85
2022-10-24T00:10:59.660Z,3.83
2022-10-24T00:13:02.919Z,3.83
2022-10-24T00:15:06.773Z,3.84
2022-10-24T00:17:09.399Z,3.83
2022-10-24T00:19:12.001Z,3.84
2022-10-24T00:21:15.415Z,3.85
2022-10-24T00:23:17.933Z,3.85
2022-10-24T00:25:20.567Z,3.85
2022-10-24T00:27:23.209Z,3.88
2022-10-24T00:29:25.768Z,3.87
2022-10-24T00:31:28.742Z,3.87
2022-10-24T00:33:31.762Z,3.85
2022-10-24T00:35:34.741Z,3.86
2022-10-24T00:37:37.536Z,3.84
2022-10-24T00:39:40.084Z,3.81
2022-10-24T00:41:43.405Z,3.82
2022-10-24T00:43:46.126Z,3.86
2022-10-24T00:45:56.972Z,3.88
2022-10-24T00:48:00.105Z,3.80
2022-10-24T00:50:11.927Z,3.79
2022-10-24T00:52:18.286Z,3.76
2022-10-24T00:54:21.703Z,3.74
2022-10-24T00:56:29.736Z,3.74
2022-10-24T00:58:35.029Z,3.69
2022-10-24T01:00:37.650Z,3.66
2022-10-24T01:02:40.335Z,3.55
2022-10-24T01:04:44.839Z,3.58
2022-10-24T01:06:50.446Z,3.57
2022-10-24T01:09:15.161Z,3.50
2022-10-24T01:11:20.481Z,3.47
2022-10-24T01:13:40.089Z,3.43
2022-10-24T01:15:42.499Z,3.44
2022-10-24T01:18:31.384Z,3.37
2022-10-24T01:21:06.372Z,3.33
2022-10-24T01:23:31.938Z,3.34
2022-10-24T01:26:05.301Z,3.32
2022-10-24T01:28:29.012Z,3.28
2022-10-24T01:30:42.631Z,3.28
2022-10-24T01:32:55.254Z,3.26
2022-10-24T01:35:21.315Z,3.26
2022-10-24T01:37:36.731Z,3.28
2022-10-24T01:39:47.887Z,3.31
2022-10-24T01:41:52.952Z,3.22
2022-10-24T01:44:03.494Z,3.26
2022-10-24T01:46:13.673Z,3.24
2022-10-24T01:48:20.244Z,3.24
2022-10-24T01:50:26.855Z,3.27
2022-10-24T01:52:34.869Z,3.24
2022-10-24T01:54:39.607Z,3.25
2022-10-24T01:56:42.299Z,3.25
2022-10-24T01:58:45.806Z,3.28
2022-10-24T02:00:55.350Z,3.27
2022-10-24T02:03:05.031Z,3.28
2022-10-24T02:05:10.348Z,3.30
2022-10-24T02:07:14.314Z,3.33
2022-10-24T02:09:19.132Z,3.31
2022-10-24T02:11:21.857Z,3.34
2022-10-24T02:13:51.396Z,3.32
2022-10-24T02:15:57.651Z,3.33
2022-10-24T02:18:00.899Z,3.31
2022-10-24T02:20:04.043Z,3.29
2022-10-24T02:22:24.489Z,3.31
2022-10-24T02:24:32.594Z,3.27
2022-10-24T02:26:49.377Z,3.23
2022-10-24T02:28:54.285Z,3.26
2022-10-24T02:31:03.211Z,3.28
2022-10-24T02:33:06.066Z,3.26
2022-10-24T02:35:11.664Z,3.28
2022-10-24T02:37:16.453Z,3.27
2022-10-24T02:39:19.938Z,3.26
2022-10-24T02:41:30.734Z,3.25
2022-10-24T02:43:34.617Z,3.28
2022-10-24T02:45:39.135Z,3.28
2022-10-24T02:47:44.689Z,3.29
2022-10-24T02:49:47.865Z,3.30
2022-10-24T02:51:52.294Z,3.26
2022-10-24T02:53:55.610Z,3.28
2022-10-24T02:55:58.303Z,3.29
2022-10-24T02:58:00.968Z,3.30
2022-10-24T03:00:20.523Z,3.31
2022-10-24T03:02:23.827Z,3.32
2022-10-24T03:04:26.390Z,3.30
2022-10-24T03:06:28.946Z,3.31
2022-10-24T03:08:31.600Z,3.31
2022-10-24T03:10:34.178Z,3.32
2022-10-24T03:12:36.776Z,3.34
2022-10-24T03:14:39.309Z,3.34
2022-10-24T03:16:41.958Z,3.34
2022-10-24T03:18:44.599Z,3.35
2022-10-24T03:20:47.331Z,3.32
2022-10-24T03:22:49.889Z,3.39
2022-10-24T03:24:55.851Z,3.37
2022-10-24T03:26:58.513Z,3.40
2022-10-24T03:29:01.422Z,3.44
2022-10-24T03:31:04.472Z,3.39
2022-10-24T03:33:07.097Z,3.41
2022-10-24T03:35:13.224Z,3.42
2022-10-24T03:37:16.929Z,3.43
2022-10-24T03:39:19.522Z,3.43
2022-10-24T03:41:22.151Z,3.42
2022-10-24T03:43:24.736Z,3.40
2022-10-24T03:45:27.416Z,3.43
2022-10-24T03:47:29.947Z,3.43
2022-10-24T03:49:32.605Z,3.44
2022-10-24T03:51:35.162Z,3.44
2022-10-24T03:53:37.754Z,3.46
2022-10-24T03:55:40.501Z,3.48
2022-10-24T03:57:43.328Z,3.49
2022-10-24T03:59:46.150Z,3.52
2022-10-24T04:01:48.800Z,3.55
2022-10-24T04:03:51.424Z,3.55
2022-10-24T04:05:54.919Z,3.56
2022-10-24T04:07:57.554Z,3.58
2022-10-24T04:10:00.100Z,3.56
2022-10-24T04:12:02.702Z,3.54
2022-10-24T04:14:05.669Z,3.58
2022-10-24T04:16:08.813Z,3.57
2022-10-24T04:18:11.449Z,3.58
2022-10-24T04:20:14.230Z,3.59
2022-10-24T04:22:16.899Z,3.60
2022-10-24T04:24:19.548Z,3.62
2022-10-24T04:26:22.219Z,3.62
2022-10-24T04:28:24.843Z,3.62
2022-10-24T04:30:29.698Z,3.63
2022-10-24T04:32:32.337Z,3.54
2022-10-24T04:34:38.960Z,3.58
2022-10-24T04:36:41.504Z,3.59
2022-10-24T04:38:44.125Z,3.61
2022-10-24T04:40:51.573Z,3.67
2022-10-24T04:42:54.136Z,3.67
2022-10-24T04:44:56.777Z,3.66
2022-10-24T04:46:59.340Z,3.69
2022-10-24T04:49:01.861Z,3.70
2022-10-24T04:51:04.776Z,3.72
2022-10-24T04:53:07.496Z,3.76
2022-10-24T04:55:10.031Z,3.74
2022-10-24T04:57:12.665Z,3.78
2022-10-24T04:59:15.275Z,3.83
2022-10-24T05:01:18.265Z,3.82
2022-10-24T05:03:22.358Z,3.84
2022-10-24T05:05:25.338Z,3.79
2022-10-24T05:07:28.150Z,3.84
2022-10-24T05:09:31.051Z,3.89
2022-10-24T05:11:34.094Z,3.90
2022-10-24T05:13:36.978Z,3.92
2022-10-24T05:15:39.969Z,3.93
2022-10-24T05:17:42.550Z,3.95
2022-10-24T05:19:45.133Z,3.97
2022-10-24T05:21:47.672Z,3.99
2022-10-24T05:23:50.288Z,4.01
2022-10-24T05:25:53.247Z,4.01
2022-10-24T05:27:56.545Z,4.00
2022-10-24T05:29:59.624Z,4.04
2022-10-24T05:32:02.469Z,4.08
2022-10-24T05:34:05.228Z,4.09
2022-10-24T05:36:09.023Z,4.10
2022-10-24T05:38:12.162Z,4.10
2022-10-24T05:40:15.224Z,4.08
2022-10-24T05:42:18.353Z,4.08
2022-10-24T05:44:21.024Z,4.12
2022-10-24T05:46:23.953Z,4.16
2022-10-24T05:48:26.645Z,4.15
2022-10-24T05:50:30.253Z,4.16
2022-10-24T05:52:33.279Z,4.15
2022-10-24T05:54:48.436Z,4.07
2022-10-24T05:56:58.561Z,4.20
2022-10-24T05:59:01.215Z,4.19
2022-10-24T06:01:04.155Z,4.19
2022-10-24T06:03:06.791Z,4.18
2022-10-24T06:05:10.186Z,4.20
2022-10-24T06:07:13.015Z,4.24
2022-10-24T06:09:15.686Z,4.22
2022-10-24T06:11:19.049Z,4.21
2022-10-24T06:13:21.748Z,4.21
2022-10-24T06:15:24.416Z,4.24
2022-10-24T06:17:27.185Z,4.30
2022-10-24T06:19:29.810Z,4.34
2022-10-24T06:21:32.374Z,4.34
2022-10-24T06:23:35.510Z,4.34
2022-10-24T06:25:41.742Z,4.39
2022-10-24T06:27:44.408Z,4.36
2022-10-24T06:29:47.056Z,4.39
2022-10-24T06:31:49.651Z,4.43
2022-10-24T06:33:54.343Z,4.47
2022-10-24T06:36:00.660Z,4.49
2022-10-24T06:38:03.270Z,4.52
2022-10-24T06:40:06.401Z,4.53
2022-10-24T06:42:09.034Z,4.52
2022-10-24T06:44:11.797Z,4.49
2022-10-24T06:46:17.202Z,4.49
2022-10-24T06:48:19.817Z,4.49
2022-10-24T06:50:22.422Z,4.51
2022-10-24T06:52:25.074Z,4.54
2022-10-24T06:54:30.197Z,4.56
2022-10-24T06:56:33.192Z,4.54
2022-10-24T06:58:38.424Z,4.57
2022-10-24T07:00:41.229Z,4.57
2022-10-24T07:02:44.093Z,4.53
2022-10-24T07:04:47.258Z,4.53
2022-10-24T07:06:49.985Z,4.55
2022-10-24T07:08:54.594Z,4.55
2022-10-24T07:10:57.412Z,4.53
2022-10-24T07:13:00.040Z,4.47
2022-10-24T07:15:04.359Z,4.56
2022-10-24T07:17:07.830Z,4.60
2022-10-24T07:19:11.345Z,4.61
2022-10-24T07:21:23.809Z,4.63
2022-10-24T07:23:26.489Z,4.64
2022-10-24T07:25:29.280Z,4.67
2022-10-24T07:27:32.854Z,4.68
2022-10-24T07:29:38.451Z,4.69
2022-10-24T07:31:41.125Z,4.70
2022-10-24T07:33:44.005Z,4.70
2022-10-24T07:35:46.648Z,4.73
2022-10-24T07:37:49.723Z,4.79
2022-10-24T07:39:52.522Z,4.81
2022-10-24T07:41:55.073Z,4.81
2022-10-24T07:43:58.886Z,4.87
2022-10-24T07:46:06.737Z,4.88
2022-10-24T07:48:10.527Z,4.92
2022-10-24T07:50:13.274Z,4.90
2022-10-24T07:52:15.880Z,4.91
2022-10-24T07:54:18.499Z,4.87
2022-10-24T07:56:22.261Z,4.85
2022-10-24T07:58:24.848Z,4.92
2022-10-24T08:00:27.444Z,4.94
2022-10-24T08:02:30.019Z,4.95
2022-10-24T08:04:32.677Z,4.95
2022-10-24T08:06:35.597Z,5.00
2022-10-24T08:08:38.971Z,4.99
2022-10-24T08:10:41.777Z,4.98
2022-10-24T08:12:44.652Z,4.96
2022-10-24T08:14:47.829Z,4.99
2022-10-24T08:16:50.767Z,5.03
2022-10-24T08:18:56.145Z,5.04
2022-10-24T08:21:05.523Z,5.04
2022-10-24T08:23:08.358Z,5.06
2022-10-24T08:25:11.464Z,5.05
2022-10-24T08:27:15.225Z,5.03
2022-10-24T08:29:22.942Z,5.08
2022-10-24T08:31:26.729Z,5.10
2022-10-24T08:33:30.413Z,5.13
2022-10-24T08:35:33.015Z,5.13
2022-10-24T08:39:45.691Z,5.17
2022-10-24T08:41:59.546Z,5.20
2022-10-24T08:44:07.193Z,5.22
2022-10-24T08:46:15.668Z,5.24
2022-10-24T08:48:27.699Z,5.23
2022-10-24T08:50:36.762Z,5.28
2022-10-24T08:52:48.379Z,5.30
2022-10-24T08:54:54.036Z,5.31
2022-10-24T08:56:59.958Z,5.32
2022-10-24T08:59:03.807Z,5.35
2022-10-24T09:01:14.636Z,5.37
2022-10-24T09:06:06.660Z,5.33
2022-10-24T09:08:27.483Z,5.38
2022-10-24T09:10:51.246Z,5.40
2022-10-24T09:12:54.205Z,5.39
2022-10-24T09:14:59.906Z,5.39
2022-10-24T09:19:24.774Z,5.42
2022-10-24T09:21:28.026Z,5.43
2022-10-24T09:23:34.439Z,5.39
2022-10-24T09:25:41.879Z,5.37
2022-10-24T09:27:45.707Z,5.39
2022-10-24T09:29:49.085Z,5.38
2022-10-24T09:31:51.930Z,5.38
2022-10-24T09:33:56.908Z,5.37
2022-10-24T09:36:05.004Z,5.36
2022-10-24T09:38:28.241Z,5.36
2022-10-24T09:40:34.036Z,5.36
2022-10-24T09:42:38.779Z,5.37
2022-10-24T09:44:41.570Z,5.39
2022-10-24T09:46:48.232Z,5.39
2022-10-24T09:49:03.247Z,5.38
2022-10-24T09:51:07.535Z,5.40
2022-10-24T09:53:29.062Z,5.40
2022-10-24T09:55:32.202Z,5.40
2022-10-24T09:57:40.302Z,5.35
2022-10-24T09:59:48.470Z,5.41
2022-10-24T10:01:51.202Z,5.44
2022-10-24T10:04:09.479Z,5.48
2022-10-24T10:06:19.206Z,5.48
2022-10-24T10:08:25.598Z,5.49
2022-10-24T10:10:35.181Z,5.49
2022-10-24T10:12:41.562Z,5.54
2022-10-24T10:14:44.262Z,5.55
2022-10-24T10:16:57.854Z,5.54
2022-10-24T10:19:03.630Z,5.55
2022-10-24T10:21:14.131Z,5.58
2022-10-24T10:23:32.844Z,5.58
2022-10-24T10:25:35.561Z,5.61
2022-10-24T10:27:40.969Z,5.60
2022-10-24T10:29:43.932Z,5.59
2022-10-24T10:31:56.870Z,5.60
2022-10-24T10:34:10.472Z,5.62
2022-10-24T10:36:44.510Z,5.62
2022-10-24T10:38:51.457Z,5.65
2022-10-24T10:41:11.783Z,5.65
2022-10-24T10:43:49.419Z,5.63
2022-10-24T10:46:17.024Z,5.64
2022-10-24T10:48:30.219Z,5.64
2022-10-24T10:51:20.354Z,5.63
2022-10-24T10:53:35.491Z,5.63
2022-10-24T10:55:49.305Z,5.59
2022-10-24T10:58:30.512Z,5.60
2022-10-24T11:00:52.346Z,5.57
2022-10-24T11:03:29.953Z,5.60
2022-10-24T11:05:51.258Z,5.59
2022-10-24T11:08:07.590Z,5.57
2022-10-24T11:10:13.911Z,5.62
2022-10-24T11:12:32.878Z,5.66
2022-10-24T11:15:15.073Z,5.69
2022-10-24T11:17:17.725Z,5.67
2022-10-24T11:19:39.756Z,5.65
2022-10-24T11:21:43.774Z,5.64
2022-10-24T11:24:00.003Z,5.63
2022-10-24T11:26:20.370Z,5.65
2022-10-24T11:28:44.874Z,5.69
2022-10-24T11:30:52.096Z,5.69
2022-10-24T11:33:03.416Z,5.71
2022-10-24T11:35:30.236Z,5.73
2022-10-24T11:37:42.263Z,5.75
2022-10-24T11:40:19.768Z,5.77
2022-10-24T11:42:31.683Z,5.76
2022-10-24T11:44:47.322Z,5.79
2022-10-24T11:47:00.914Z,5.81
2022-10-24T11:49:06.689Z,5.81
2022-10-24T11:51:21.292Z,5.72
2022-10-24T11:53:31.385Z,5.81
2022-10-24T11:55:43.362Z,5.82
2022-10-24T11:57:48.595Z,5.82
2022-10-24T11:59:55.566Z,5.82
2022-10-24T12:02:07.585Z,5.82
2022-10-24T12:04:47.091Z,5.83
2022-10-24T12:06:55.732Z,5.85
2022-10-24T12:08:58.329Z,5.88
2022-10-24T12:11:06.632Z,5.91
2022-10-24T12:13:21.397Z,5.92
2022-10-24T12:15:32.257Z,5.94
2022-10-24T12:17:35.569Z,5.96
2022-10-24T12:19:41.658Z,5.95
2022-10-24T12:21:55.651Z,5.95
2022-10-24T12:24:00.685Z,5.98
2022-10-24T12:26:18.734Z,5.99
2022-10-24T12:28:26.350Z,6.01
2022-10-24T12:30:32.473Z,5.98
2022-10-24T12:32:43.576Z,6.04
2022-10-24T12:35:06.936Z,6.07
2022-10-24T12:37:20.578Z,6.07
2022-10-24T12:39:35.131Z,6.07
2022-10-24T12:41:40.499Z,6.09
2022-10-24T12:43:44.543Z,6.08
2022-10-24T12:45:47.162Z,6.07
2022-10-24T12:50:21.702Z,6.09
2022-10-24T12:52:33.342Z,6.09
2022-10-24T12:54:46.547Z,6.11
2022-10-24T12:56:52.337Z,6.14
2022-10-24T12:59:03.650Z,6.14
2022-10-24T13:01:23.351Z,6.17
2022-10-24T13:03:38.447Z,6.16
2022-10-24T13:05:49.969Z,6.16
2022-10-24T13:08:13.849Z,6.15
2022-10-24T13:10:33.801Z,6.11
2022-10-24T13:12:57.927Z,6.10
2022-10-24T13:15:38.147Z,6.12
2022-10-24T13:17:59.962Z,6.09
2022-10-24T13:20:27.621Z,6.10
2022-10-24T13:22:35.596Z,6.09
2022-10-24T13:24:40.776Z,6.12
2022-10-24T13:27:12.954Z,6.16
2022-10-24T13:29:36.047Z,6.16
2022-10-24T13:31:40.664Z,6.19
2022-10-24T13:33:45.827Z,6.17
2022-10-24T13:35:55.815Z,6.20
2022-10-24T13:38:03.794Z,6.21
2022-10-24T13:40:11.079Z,6.21
2022-10-24T13:42:25.944Z,6.23
2022-10-24T13:44:30.454Z,6.23
2022-10-24T13:46:45.956Z,6.23
2022-10-24T13:48:53.455Z,6.24
2022-10-24T13:51:27.981Z,6.22
2022-10-24T13:53:36.015Z,6.21
2022-10-24T13:55:50.556Z,6.19
2022-10-24T13:58:00.904Z,6.18
2022-10-24T14:00:20.862Z,6.19
2022-10-24T14:02:28.469Z,6.20
2022-10-24T14:04:35.651Z,6.17
2022-10-24T14:06:38.369Z,6.20
2022-10-24T14:09:02.813Z,6.17
2022-10-24T14:11:24.252Z,6.18
2022-10-24T14:13:28.725Z,6.16
2022-10-24T14:15:32.873Z,6.19
2022-10-24T14:17:36.020Z,6.19
2022-10-24T14:19:45.865Z,6.21
2022-10-24T14:21:49.338Z,6.23
2022-10-24T14:24:00.435Z,6.21
2022-10-24T14:26:11.415Z,6.21
2022-10-24T14:28:20.641Z,6.18
2022-10-24T14:30:28.537Z,6.23
2022-10-24T14:32:33.440Z,6.24
2022-10-24T14:34:37.774Z,6.24
2022-10-24T14:36:40.482Z,6.25
2022-10-24T14:38:43.734Z,6.28
2022-10-24T14:43:45.147Z,6.29
2022-10-24T14:46:06.556Z,6.31
2022-10-24T14:48:35.732Z,6.29
2022-10-24T14:50:43.264Z,6.28
2022-10-24T14:52:47.272Z,6.28
2022-10-24T14:55:26.959Z,6.31
2022-10-24T14:57:32.602Z,6.34
2022-10-24T14:59:38.337Z,6.34
2022-10-24T15:01:40.942Z,6.34
2022-10-24T15:03:53.914Z,6.35
2022-10-24T15:06:06.886Z,6.30
2022-10-24T15:08:21.452Z,6.26
2022-10-24T15:10:35.664Z,6.25
2022-10-24T15:12:41.691Z,6.21
2022-10-24T15:14:49.139Z,6.17
2022-10-24T15:16:51.962Z,6.12
2022-10-24T15:18:57.360Z,6.08
2022-10-24T15:21:08.206Z,6.05
2022-10-24T15:23:32.175Z,6.00
2022-10-24T15:25:40.682Z,5.95
2022-10-24T15:27:47.043Z,5.87
2022-10-24T15:29:50.205Z,5.80
2022-10-24T15:31:53.090Z,5.70
2022-10-24T15:33:55.999Z,5.61
2022-10-24T15:36:00.108Z,5.57
2022-10-24T15:38:14.523Z,5.43
2022-10-24T15:40:24.242Z,5.36
2022-10-24T15:42:26.932Z,5.35
2022-10-24T15:44:31.288Z,5.37
2022-10-24T15:46:34.128Z,5.38
2022-10-24T15:48:39.587Z,5.28
2022-10-24T15:50:45.166Z,5.22
2022-10-24T15:52:53.412Z,5.23
2022-10-24T15:54:56.086Z,5.16
2022-10-24T15:57:02.886Z,5.10
2022-10-24T15:59:08.188Z,5.09
2022-10-24T16:01:42.755Z,5.06
2022-10-24T16:03:45.788Z,4.98
2022-10-24T16:05:53.975Z,4.93
2022-10-24T16:07:56.664Z,4.87
2022-10-24T16:09:59.726Z,4.92
2022-10-24T16:12:02.722Z,4.91
2022-10-24T16:14:05.851Z,4.92
2022-10-24T16:16:09.209Z,4.89
2022-10-24T16:18:12.731Z,4.88
2022-10-24T16:20:16.215Z,4.87
2022-10-24T16:22:18.923Z,4.89
2022-10-24T16:24:21.567Z,4.82
2022-10-24T16:26:24.275Z,4.83
2022-10-24T16:28:27.147Z,4.81
2022-10-24T16:30:32.263Z,4.84
2022-10-24T16:32:35.183Z,4.84
2022-10-24T16:34:37.802Z,4.85
2022-10-24T16:36:43.746Z,4.84
2022-10-24T16:38:47.239Z,4.84
2022-10-24T16:40:50.275Z,4.80
2022-10-24T16:42:55.183Z,4.80
2022-10-24T16:44:59.358Z,4.76
2022-10-24T16:47:01.948Z,4.73
2022-10-24T16:51:15.646Z,4.65
2022-10-24T16:53:18.498Z,4.63
2022-10-24T16:55:21.856Z,4.55
2022-10-24T16:59:32.462Z,4.56
2022-10-24T17:01:35.170Z,4.54
2022-10-24T17:03:38.202Z,4.51
2022-10-24T17:05:41.397Z,4.56
2022-10-24T17:07:44.568Z,4.56
2022-10-24T17:09:47.343Z,4.50
2022-10-24T17:11:49.959Z,4.50
2022-10-24T17:13:52.609Z,4.43
2022-10-24T17:15:55.909Z,4.47
2022-10-24T17:17:58.755Z,4.41
2022-10-24T17:20:01.852Z,4.35
2022-10-24T17:22:07.249Z,4.29
2022-10-24T17:24:12.146Z,4.29
2022-10-24T17:26:16.002Z,4.22
2022-10-24T17:28:19.209Z,4.14
2022-10-24T17:30:28.442Z,4.06
2022-10-24T17:32:33.254Z,3.96
2022-10-24T17:34:36.778Z,3.84
2022-10-24T17:36:42.439Z,3.71
2022-10-24T17:39:27.691Z,3.63
2022-10-24T17:41:36.694Z,3.53
2022-10-24T17:43:39.463Z,3.46
2022-10-24T17:45:42.493Z,3.39
2022-10-24T17:49:48.665Z,3.37
2022-10-24T17:51:51.268Z,3.36
2022-10-24T17:53:54.130Z,3.36
2022-10-24T17:55:56.766Z,3.30
2022-10-24T17:57:59.315Z,3.25
2022-10-24T18:00:02.511Z,3.16
2022-10-24T18:02:11.836Z,3.12
2022-10-24T18:04:15.390Z,3.07
2022-10-24T18:06:17.961Z,2.98
2022-10-24T18:08:20.494Z,2.90
2022-10-24T18:10:23.143Z,2.84
2022-10-24T18:12:25.886Z,2.79
2022-10-24T18:14:28.593Z,2.74
2022-10-24T18:16:31.286Z,2.74
2022-10-24T18:18:33.918Z,2.72
2022-10-24T18:20:36.520Z,2.67
2022-10-24T18:22:39.528Z,2.64
2022-10-24T18:24:42.446Z,2.59
2022-10-24T18:26:46.849Z,2.53
2022-10-24T18:28:51.444Z,2.53
2022-10-24T18:30:54.036Z,2.44
2022-10-24T18:32:56.713Z,2.44
2022-10-24T18:34:59.566Z,2.43
2022-10-24T18:37:02.136Z,2.41
2022-10-24T18:39:05.332Z,2.37
2022-10-24T18:41:38.619Z,2.30
2022-10-24T18:43:49.041Z,2.28
2022-10-24T18:45:53.589Z,2.15
2022-10-24T18:47:56.387Z,2.16
2022-10-24T18:50:00.336Z,2.16
2022-10-24T18:52:11.836Z,2.10
2022-10-24T18:56:22.470Z,2.01
2022-10-24T18:58:25.267Z,2.05
2022-10-24T19:00:30.287Z,2.07
2022-10-24T19:02:43.526Z,2.05
2022-10-24T19:04:53.130Z,2.04
2022-10-24T19:07:00.182Z,2.01
2022-10-24T19:09:03.037Z,2.03
2022-10-24T19:11:05.712Z,1.99
2022-10-24T19:13:08.473Z,1.94
2022-10-24T19:15:12.104Z,1.97
2022-10-24T19:17:16.454Z,1.92
2022-10-24T19:21:39.703Z,1.86
2022-10-24T19:23:42.281Z,1.87
2022-10-24T19:25:45.142Z,1.88
2022-10-24T19:27:49.585Z,1.89
2022-10-24T19:29:52.148Z,1.86
2022-10-24T19:31:54.729Z,1.86
2022-10-24T19:33:57.390Z,1.82
2022-10-24T19:36:04.531Z,1.81
2022-10-24T19:38:07.229Z,1.81
2022-10-24T19:40:11.040Z,1.76
2022-10-24T19:42:14.851Z,1.77
2022-10-24T19:44:18.455Z,1.76
2022-10-24T19:46:21.488Z,1.72
2022-10-24T19:48:24.142Z,1.66
2022-10-24T19:50:26.810Z,1.66
2022-10-24T19:52:29.370Z,1.64
2022-10-24T19:54:32.044Z,1.60
2022-10-24T19:56:34.568Z,1.58
2022-10-24T19:58:37.533Z,1.57
2022-10-24T20:00:41.378Z,1.56
2022-10-24T20:02:44.134Z,1.56
2022-10-24T20:04:49.215Z,1.52
2022-10-24T20:06:51.979Z,1.54
2022-10-24T20:08:54.606Z,1.55
2022-10-24T20:10:57.455Z,1.48
2022-10-24T20:13:00.452Z,1.50
2022-10-24T20:15:03.130Z,1.47
2022-10-24T20:17:06.935Z,1.45
2022-10-24T20:19:09.661Z,1.42
2022-10-24T20:21:16.645Z,1.39
2022-10-24T20:23:21.129Z,1.37
2022-10-24T20:25:23.762Z,1.34
2022-10-24T20:27:26.403Z,1.30
2022-10-24T20:29:29.025Z,1.28
2022-10-24T20:31:34.872Z,1.23
2022-10-24T20:33:37.567Z,1.20
2022-10-24T20:35:40.373Z,1.18
2022-10-24T20:37:45.365Z,1.11
2022-10-24T20:39:48.153Z,1.10
2022-10-24T20:41:53.969Z,1.09
2022-10-24T20:43:57.294Z,1.08
2022-10-24T20:46:03.358Z,1.07
2022-10-24T20:48:06.081Z,1.04
2022-10-24T20:50:09.497Z,1.01
2022-10-24T20:54:19.770Z,0.97
2022-10-24T20:56:26.055Z,0.96
2022-10-24T20:58:28.746Z,0.93
2022-10-24T21:00:32.747Z,0.90
2022-10-24T21:02:37.044Z,0.87
2022-10-24T21:04:39.814Z,0.86
2022-10-24T21:06:42.437Z,0.81
2022-10-24T21:08:48.220Z,0.83
2022-10-24T21:10:50.928Z,0.79
2022-10-24T21:12:54.116Z,0.79
2022-10-24T21:14:57.102Z,0.79
2022-10-24T21:16:59.705Z,0.79
2022-10-24T21:19:02.825Z,0.79
2022-10-24T21:21:10.863Z,0.77
2022-10-24T21:23:13.973Z,0.73
2022-10-24T21:25:16.700Z,0.69
2022-10-24T21:27:19.319Z,0.63
2022-10-24T21:29:32.777Z,0.65
2022-10-24T21:31:36.508Z,0.71
2022-10-24T21:33:41.647Z,0.67
2022-10-24T21:35:44.246Z,0.65
2022-10-24T21:37:47.056Z,0.64
2022-10-24T21:39:49.836Z,0.63
2022-10-24T21:41:52.515Z,0.61
2022-10-24T21:43:55.354Z,0.62
2022-10-24T21:46:05.703Z,0.65
2022-10-24T21:48:08.250Z,0.70
2022-10-24T21:50:10.835Z,0.74
2022-10-24T21:52:13.595Z,0.77
2022-10-24T21:54:18.767Z,0.77
2022-10-24T21:56:23.807Z,0.74
2022-10-24T21:58:26.350Z,0.71
2022-10-24T22:00:28.889Z,0.69
2022-10-24T22:02:31.606Z,0.67
2022-10-24T22:04:34.263Z,0.63
2022-10-24T22:06:37.346Z,0.63
2022-10-24T22:08:39.914Z,0.60
2022-10-24T22:10:42.464Z,0.52
2022-10-24T22:12:45.058Z,0.58
2022-10-24T22:14:47.675Z,0.56
2022-10-24T22:16:50.230Z,0.57
2022-10-24T22:18:53.051Z,0.57
2022-10-24T22:20:55.803Z,0.58
2022-10-24T22:22:58.342Z,0.61
2022-10-24T22:25:00.991Z,0.61
2022-10-24T22:27:03.633Z,0.65
2022-10-24T22:29:07.561Z,0.68
2022-10-24T22:31:14.177Z,0.71
2022-10-24T22:33:32.821Z,0.74
2022-10-24T22:35:35.884Z,0.76
2022-10-24T22:37:38.680Z,0.82
2022-10-24T22:39:41.648Z,0.87
2022-10-24T22:41:45.235Z,0.92
2022-10-24T22:43:48.229Z,0.93
2022-10-24T22:46:44.942Z,0.98
2022-10-24T22:48:50.881Z,0.98
2022-10-24T22:50:55.308Z,0.99
2022-10-24T22:52:58.450Z,1.03
2022-10-24T22:55:03.854Z,1.04
2022-10-24T22:57:07.551Z,1.04
2022-10-24T22:59:10.452Z,1.09
2022-10-24T23:01:19.118Z,1.12
2022-10-24T23:03:59.526Z,1.13
2022-10-24T23:06:23.107Z,1.15
2022-10-24T23:08:39.369Z,1.17
2022-10-24T23:10:42.185Z,1.20
2022-10-24T23:12:45.161Z,1.18
2022-10-24T23:14:49.480Z,1.21
2022-10-24T23:17:00.776Z,1.21
2022-10-24T23:19:32.790Z,1.24
2022-10-24T23:21:41.538Z,1.26
2022-10-24T23:23:44.494Z,1.32
2022-10-24T23:25:57.037Z,1.34
2022-10-24T23:28:21.782Z,1.35
2022-10-24T23:30:24.574Z,1.37
2022-10-24T23:32:47.573Z,1.36
2022-10-24T23:34:51.292Z,1.39
2022-10-24T23:37:20.876Z,1.45
2022-10-24T23:39:42.370Z,1.45
2022-10-24T23:42:05.000Z,1.48
2022-10-24T23:44:46.335Z,1.51
2022-10-24T23:47:58.321Z,1.48
2022-10-24T23:50:22.569Z,1.44
2022-10-24T23:53:05.035Z,1.42
2022-10-24T23:55:29.304Z,1.44
2022-10-24T23:57:32.121Z,1.44
2022-10-24T23:59:34.699Z,1.45
